Flight Number: AVA3181 Duration: 3:00
Departure: Georgetown Cheddi Jagan (SYCJ) at 23:45 Distance: 1094.16 Nm
Arrival: Iquitos (SPQT) at 02:45 Equipment: B737

Weather Information
Georgetown/Cheddi Jagan International Airport, Guyana (SYCJ) 06-29N 058-15W May 30, 2020 - 04:00 AM EDT / 2020.05.30 0800 UTC
Wind: Variable at 2 MPH (2 KT):0
Visibility: less than 1 mile:0
Sky conditions: mostly cloudy Weather: fog Temperature: 75 F (24 C) Dew Point: 75 F (24 C) Relative Humidity: 100% Pressure (altimeter): 29.91 in. Hg (1013 hPa)
ob: SYCJ 300800Z VRB02KT 0200 FG BKN002 24/24 Q1013 NOSIG cycle: 8
Sunrise: 09:39 Sunset: 22:02 (UTC)

Iquitos, Peru (SPQT) 03-45S 073-15W 126M May 30, 2020 - 04:00 AM EDT / 2020.05.30 0800 UTC
Wind: from the W (260 degrees) at 3 MPH (3 KT):0
Visibility: 2 mile(s):0
Sky conditions: mostly cloudy Weather: mist Temperature: 77 F (25 C) Dew Point: 75 F (24 C) Relative Humidity: 94% Pressure (altimeter): 29.88 in. Hg (1012 hPa)
ob: SPQT 300800Z 26003KT 4000 BR BKN005 25/24 Q1012 NOSIG RMK PP000 cycle: 8
Sunrise: 10:55 Sunset: 22:45 (UTC)

TAF:2020/05/30 06:59 TAF COR SPQT 300600Z 3006/3106 00000KT 9999 FEW010 TX32/3019Z TN23/3011Z TEMPO 3006/3008 4000 BR BKN008 SCT080 TEMPO 3008/3012 0200 FG BKN003 BKN080 BECMG 3013/3016 15005KT BKN020 SCT100 TEMPO 3020/3024 05012KT 4000 SHRA BKN015 FEW025TCU BKN080

This route has never been flown.

Route map